Time;durP1;ratioP1;P1;durP2;ratioP2;P2;SDS_P1;SDS_P2;PMS_P1;PMS_P2;Temp;Humidity;BMP_temperature;BMP_pressure;BME280_temperature;BME280_humidity;BME280_pressure;Samples;Min_cycle;Max_cycle;Signal;HPM_P1;HPM_P2
2024/04/14 00:00:49;;;;;;;3.33;1.15;;;;;;;19.31;71.00;97983.56;5395297;26;20011;-80
2024/04/14 00:03:16;;;;;;;3.20;1.30;;;;;;;19.29;71.66;97967.47;5408264;26;20482;-80
2024/04/14 00:05:44;;;;;;;3.88;1.33;;;;;;;19.21;71.09;97979.47;5399165;26;20547;-81
2024/04/14 00:08:11;;;;;;;2.60;1.33;;;;;;;19.09;72.00;97978.81;5392959;26;20000;-80
2024/04/14 00:10:38;;;;;;;2.47;1.25;;;;;;;19.13;72.60;97972.25;5394804;26;20039;-80
2024/04/14 00:13:05;;;;;;;2.20;1.10;;;;;;;19.20;72.60;97971.59;5402493;26;20000;-80
2024/04/14 00:15:32;;;;;;;2.75;1.17;;;;;;;19.05;73.65;97948.56;5409365;26;20038;-80
2024/04/14 00:17:59;;;;;;;4.82;1.30;;;;;;;19.14;73.43;97964.81;5401766;26;20008;-81
2024/04/14 00:20:28;;;;;;;3.30;1.33;;;;;;;19.03;73.78;97953.63;5392553;26;20023;-83
2024/04/14 00:22:55;;;;;;;2.63;1.20;;;;;;;19.03;74.49;97961.84;5402909;26;20076;-79
2024/04/14 00:25:22;;;;;;;2.20;1.30;;;;;;;19.10;74.82;97953.75;5405817;26;20019;-80
2024/04/14 00:27:49;;;;;;;3.35;1.25;;;;;;;19.06;75.76;97952.91;5391141;26;20012;-81
2024/04/14 00:30:16;;;;;;;4.18;1.50;;;;;;;19.08;76.50;97938.81;5394836;26;20023;-81
2024/04/14 00:32:43;;;;;;;3.05;1.30;;;;;;;18.97;77.27;97955.06;5408553;26;20019;-82
2024/04/14 00:35:10;;;;;;;2.88;1.23;;;;;;;18.82;79.14;97949.63;5391845;26;20522;-80
2024/04/14 00:37:37;;;;;;;3.35;1.77;;;;;;;18.82;79.45;97946.91;5408695;26;20004;-82
2024/04/14 00:40:05;;;;;;;2.83;1.50;;;;;;;18.82;80.37;97952.38;5414570;26;20007;-83
2024/04/14 00:42:33;;;;;;;3.88;1.45;;;;;;;18.89;79.98;97944.31;5413635;26;20003;-83
2024/04/14 00:45:00;;;;;;;4.97;1.50;;;;;;;18.84;80.18;97939.13;5410703;26;20004;-84
2024/04/14 00:47:27;;;;;;;4.95;1.60;;;;;;;18.77;80.58;97941.69;5414295;26;19999;-82
2024/04/14 00:49:55;;;;;;;2.45;1.20;;;;;;;18.80;80.70;97930.00;5414118;26;20075;-80
2024/04/14 00:52:22;;;;;;;2.70;1.50;;;;;;;18.88;80.17;97934.50;5411960;26;20043;-83
2024/04/14 00:54:49;;;;;;;2.15;1.20;;;;;;;18.75;81.37;97935.78;5403259;26;20007;-82
2024/04/14 00:57:17;;;;;;;1.70;1.20;;;;;;;18.82;81.52;97917.53;5411093;26;20012;-82
2024/04/14 00:59:44;;;;;;;2.47;1.25;;;;;;;18.79;81.13;97920.22;5407869;26;20007;-84
2024/04/14 01:02:12;;;;;;;1.95;1.35;;;;;;;18.65;81.73;97915.22;5347212;26;20077;-83
2024/04/14 01:04:39;;;;;;;2.80;1.33;;;;;;;18.74;82.53;97920.50;5377193;26;20015;-82
2024/04/14 01:07:06;;;;;;;3.85;1.50;;;;;;;18.74;81.63;97923.25;5376918;26;20033;-82
2024/04/14 01:09:33;;;;;;;3.35;1.40;;;;;;;18.69;82.58;97916.06;5398664;26;20019;-81
2024/04/14 01:12:01;;;;;;;5.50;1.50;;;;;;;18.65;82.35;97918.75;5403892;26;20010;-80
2024/04/14 01:14:28;;;;;;;2.10;1.17;;;;;;;18.66;82.13;97914.84;5388297;26;20011;-82
2024/04/14 01:16:55;;;;;;;3.50;1.30;;;;;;;18.71;82.56;97915.72;5392615;26;20334;-82
2024/04/14 01:19:22;;;;;;;3.60;1.38;;;;;;;18.62;82.74;97908.50;5407526;26;20004;-82
2024/04/14 01:21:49;;;;;;;3.15;1.20;;;;;;;18.76;82.23;97913.50;5389458;26;20004;-81
2024/04/14 01:24:16;;;;;;;3.30;1.48;;;;;;;18.66;82.72;97908.56;5393746;26;20024;-83
2024/04/14 01:26:43;;;;;;;2.72;1.30;;;;;;;18.64;83.44;97908.94;5402063;26;20018;-81
2024/04/14 01:29:10;;;;;;;3.55;1.63;;;;;;;18.58;83.36;97904.88;5397766;26;20077;-83
2024/04/14 01:31:37;;;;;;;6.45;1.30;;;;;;;18.67;82.75;97910.16;5383485;26;20380;-81
2024/04/14 01:34:05;;;;;;;1.80;1.20;;;;;;;18.58;83.57;97904.13;5404834;26;20012;-80
2024/04/14 01:36:32;;;;;;;5.13;1.42;;;;;;;18.58;84.17;97902.13;5412721;26;20012;-82
2024/04/14 01:38:59;;;;;;;2.95;1.20;;;;;;;18.52;83.88;97894.56;5438590;26;20053;-80
2024/04/14 01:41:27;;;;;;;3.10;1.50;;;;;;;18.47;85.76;97903.88;5413147;26;20007;-80
2024/04/14 01:43:54;;;;;;;2.75;1.25;;;;;;;18.60;84.96;97910.03;5393441;26;20090;-81
2024/04/14 01:46:21;;;;;;;2.33;1.42;;;;;;;18.41;85.35;97899.81;5389515;26;20538;-80
2024/04/14 01:48:48;;;;;;;5.30;1.40;;;;;;;18.38;87.05;97908.72;5410267;26;20413;-80
2024/04/14 01:51:15;;;;;;;4.13;1.25;;;;;;;18.28;87.30;97894.78;5407625;26;20023;-82
2024/04/14 01:53:42;;;;;;;2.42;1.05;;;;;;;18.39;87.04;97898.56;5396151;26;20409;-81
2024/04/14 01:56:10;;;;;;;3.72;1.20;;;;;;;18.35;87.74;97884.78;5405592;26;20021;-80
2024/04/14 01:58:37;;;;;;;3.05;1.33;;;;;;;18.34;87.44;97898.84;5406509;26;20014;-80
2024/04/14 02:01:04;;;;;;;2.25;1.13;;;;;;;18.28;89.21;97906.56;5403517;26;19999;-82
2024/04/14 02:03:32;;;;;;;3.10;1.38;;;;;;;18.31;89.75;97891.34;5401510;26;20452;-81
2024/04/14 02:05:59;;;;;;;3.38;1.65;;;;;;;18.21;90.21;97898.19;5399008;26;20003;-81
2024/04/14 02:08:28;;;;;;;3.00;1.30;;;;;;;18.19;91.40;97895.03;5399101;26;20032;-80
2024/04/14 02:10:56;;;;;;;3.97;1.35;;;;;;;18.27;91.08;97890.50;5384747;26;20520;-82
2024/04/14 02:13:24;;;;;;;4.07;1.95;;;;;;;18.24;91.63;97894.75;5402288;26;20004;-80
2024/04/14 02:15:51;;;;;;;2.33;1.20;;;;;;;18.22;91.72;97893.50;5382723;26;20014;-81
2024/04/14 02:18:18;;;;;;;2.50;1.30;;;;;;;18.12;93.49;97894.06;5397171;26;20008;-81
2024/04/14 02:20:45;;;;;;;2.75;1.40;;;;;;;18.22;92.98;97885.28;5398969;26;20001;-82
2024/04/14 02:23:12;;;;;;;2.17;1.20;;;;;;;18.07;94.21;97881.41;5402771;26;20018;-82
2024/04/14 02:25:39;;;;;;;4.47;1.27;;;;;;;18.12;94.57;97896.81;5412479;26;20020;-81
2024/04/14 02:28:06;;;;;;;5.18;1.40;;;;;;;18.08;94.83;97887.69;5411211;26;19999;-81
2024/04/14 02:30:33;;;;;;;1.92;1.17;;;;;;;18.06;95.23;97871.63;5373849;26;20019;-80
2024/04/14 02:33:00;;;;;;;3.58;1.40;;;;;;;18.01;96.54;97888.34;5401060;26;20007;-81
2024/04/14 02:35:28;;;;;;;5.10;1.67;;;;;;;17.99;97.66;97883.22;5395599;26;20017;-81
2024/04/14 02:37:55;;;;;;;4.43;1.30;;;;;;;17.88;97.85;97882.19;5385549;26;20019;-82
2024/04/14 02:40:22;;;;;;;5.10;1.30;;;;;;;17.94;98.53;97878.00;5406020;26;20015;-82
2024/04/14 02:42:49;;;;;;;4.25;1.45;;;;;;;17.92;98.10;97885.78;5406888;26;20402;-83
2024/04/14 02:45:16;;;;;;;3.28;1.60;;;;;;;17.92;98.36;97868.56;5399752;26;20038;-82
2024/04/14 02:47:43;;;;;;;2.30;1.58;;;;;;;17.83;98.56;97866.00;5397417;26;20004;-81
2024/04/14 02:50:11;;;;;;;3.50;1.40;;;;;;;17.99;99.15;97872.25;5411695;26;20077;-81
2024/04/14 02:52:38;;;;;;;2.47;1.40;;;;;;;17.82;100.00;97864.44;5428128;26;20206;-81
2024/04/14 02:55:05;;;;;;;1.95;1.40;;;;;;;17.81;100.00;97864.75;5407487;26;20011;-80
2024/04/14 02:57:32;;;;;;;3.22;1.35;;;;;;;17.74;100.00;97868.16;5398075;26;20004;-80
2024/04/14 03:00:00;;;;;;;2.63;1.38;;;;;;;17.76;100.00;97860.38;5391706;26;20022;-82
2024/04/14 03:02:26;;;;;;;4.80;1.30;;;;;;;17.76;100.00;97859.56;5411975;26;20003;-83
2024/04/14 03:04:54;;;;;;;4.65;1.27;;;;;;;17.97;100.00;97868.28;5408938;26;20461;-81
2024/04/14 03:07:21;;;;;;;3.75;1.48;;;;;;;17.77;100.00;97861.97;5402449;26;20036;-83
2024/04/14 03:09:51;;;;;;;3.72;1.42;;;;;;;17.77;100.00;97867.44;5394460;26;20495;-82
2024/04/14 03:12:19;;;;;;;2.35;1.52;;;;;;;17.76;100.00;97865.03;5401681;26;20088;-82
2024/04/14 03:14:45;;;;;;;5.10;1.40;;;;;;;17.70;100.00;97861.81;5395848;26;20077;-83
2024/04/14 03:17:13;;;;;;;4.82;1.60;;;;;;;17.67;100.00;97854.28;5377683;26;19996;-82
2024/04/14 03:19:40;;;;;;;3.70;1.63;;;;;;;17.74;100.00;97873.63;5410826;26;20022;-83
2024/04/14 03:22:07;;;;;;;3.33;1.60;;;;;;;17.71;100.00;97860.63;5371409;26;20086;-84
2024/04/14 03:24:34;;;;;;;6.03;1.50;;;;;;;17.71;100.00;97854.34;5387693;26;20008;-82
2024/04/14 03:27:01;;;;;;;4.35;1.60;;;;;;;17.78;100.00;97869.00;5392545;26;20015;-82
2024/04/14 03:29:28;;;;;;;2.72;1.20;;;;;;;17.82;100.00;97858.16;5390508;26;20005;-81
2024/04/14 03:31:55;;;;;;;4.15;1.23;;;;;;;17.85;100.00;97857.44;5402210;26;20008;-81
2024/04/14 03:34:23;;;;;;;5.40;1.30;;;;;;;17.91;100.00;97851.31;5392098;26;20398;-82
2024/04/14 03:36:50;;;;;;;4.30;1.38;;;;;;;17.86;100.00;97856.31;5392366;26;20114;-82
2024/04/14 03:39:17;;;;;;;4.20;1.70;;;;;;;17.93;100.00;97856.47;5396518;26;20012;-80
2024/04/14 03:41:44;;;;;;;3.53;1.52;;;;;;;17.97;100.00;97858.13;5393610;26;20404;-81
2024/04/14 03:44:13;;;;;;;2.90;1.45;;;;;;;17.84;100.00;97859.38;5395556;26;20008;-81
2024/04/14 03:46:40;;;;;;;2.80;1.40;;;;;;;17.81;100.00;97851.88;5394832;26;20048;-82
2024/04/14 03:49:07;;;;;;;5.88;1.60;;;;;;;17.75;100.00;97858.00;5405269;26;20015;-82
2024/04/14 03:51:34;;;;;;;2.85;1.48;;;;;;;17.71;100.00;97851.63;5405831;26;20000;-81
2024/04/14 03:54:01;;;;;;;4.03;1.50;;;;;;;17.70;100.00;97850.06;5393653;26;20003;-79
2024/04/14 03:56:28;;;;;;;3.92;1.70;;;;;;;17.65;100.00;97850.31;5410763;26;20040;-81
2024/04/14 03:58:55;;;;;;;3.70;1.52;;;;;;;17.62;100.00;97851.03;5396907;26;20082;-80
2024/04/14 04:01:23;;;;;;;3.60;1.92;;;;;;;17.55;100.00;97853.59;5391340;26;20078;-82
2024/04/14 04:03:51;;;;;;;4.63;1.50;;;;;;;17.57;100.00;97854.84;5408496;26;20012;-78
2024/04/14 04:06:19;;;;;;;3.70;1.38;;;;;;;17.54;100.00;97852.00;5387538;26;20411;-79
2024/04/14 04:08:46;;;;;;;3.65;1.55;;;;;;;17.56;100.00;97857.91;5399071;26;20019;-82
2024/04/14 04:11:13;;;;;;;7.82;1.65;;;;;;;17.36;100.00;97846.88;5394410;26;20008;-82
2024/04/14 04:13:40;;;;;;;4.85;1.63;;;;;;;17.37;100.00;97856.66;5404590;26;20053;-82
2024/04/14 04:16:07;;;;;;;5.65;1.73;;;;;;;17.50;100.00;97857.34;5398558;26;20228;-82
2024/04/14 04:18:35;;;;;;;2.40;1.50;;;;;;;17.35;100.00;97860.91;5398463;26;20030;-82
2024/04/14 04:21:06;;;;;;;4.47;1.67;;;;;;;17.34;100.00;97840.94;5409498;26;20084;-83
2024/04/14 04:23:34;;;;;;;3.00;1.63;;;;;;;17.39;100.00;97861.78;5408478;26;20003;-82
2024/04/14 04:26:01;;;;;;;3.30;1.60;;;;;;;17.36;100.00;97855.09;5408915;26;20407;-82
2024/04/14 04:28:29;;;;;;;4.60;1.50;;;;;;;17.39;100.00;97864.53;5400044;26;20080;-82
2024/04/14 04:30:56;;;;;;;4.65;1.65;;;;;;;17.49;100.00;97864.00;5396626;26;20012;-82
2024/04/14 04:33:27;;;;;;;4.30;1.77;;;;;;;17.48;100.00;97865.13;5408704;26;20402;-82
2024/04/14 04:35:55;;;;;;;3.50;1.63;;;;;;;17.44;100.00;97859.59;5408462;26;20368;-82
2024/04/14 04:38:23;;;;;;;3.65;1.50;;;;;;;17.42;100.00;97870.06;5388461;26;20044;-82
2024/04/14 04:40:51;;;;;;;2.92;1.65;;;;;;;17.29;100.00;97856.84;5406424;26;20043;-82
2024/04/14 04:43:19;;;;;;;3.83;1.63;;;;;;;17.43;100.00;97868.94;5411913;26;20003;-81
2024/04/14 04:45:46;;;;;;;3.63;1.65;;;;;;;17.43;100.00;97863.47;5406215;26;20015;-81
2024/04/14 04:48:13;;;;;;;3.10;1.75;;;;;;;17.59;100.00;97882.66;5400889;26;20014;-82
2024/04/14 04:50:44;;;;;;;4.07;1.65;;;;;;;17.42;100.00;97859.13;5408385;26;20013;-81
2024/04/14 04:53:11;;;;;;;3.08;1.52;;;;;;;17.52;100.00;97873.44;5407015;26;20011;-80
2024/04/14 04:55:38;;;;;;;7.22;1.92;;;;;;;17.50;100.00;97881.22;5398261;26;20334;-83
2024/04/14 04:58:05;;;;;;;5.25;1.80;;;;;;;17.50;100.00;97882.00;5410304;26;20448;-83
2024/04/14 05:00:32;;;;;;;3.85;1.70;;;;;;;17.47;100.00;97876.44;5383714;26;20019;-81
2024/04/14 05:02:59;;;;;;;4.80;1.67;;;;;;;17.53;100.00;97877.78;5394166;26;20333;-82
2024/04/14 05:05:26;;;;;;;4.60;1.77;;;;;;;17.51;100.00;97880.84;5402471;26;20010;-81
2024/04/14 05:07:54;;;;;;;2.83;1.67;;;;;;;17.53;100.00;97875.03;5386134;26;20587;-81
2024/04/14 05:10:21;;;;;;;3.88;1.70;;;;;;;17.53;100.00;97877.78;5413178;26;20018;-80
2024/04/14 05:12:51;;;;;;;5.72;2.15;;;;;;;17.68;100.00;97877.00;5413747;26;19995;-79
2024/04/14 05:15:18;;;;;;;4.78;2.13;;;;;;;17.63;100.00;97874.50;5404592;26;19999;-80
2024/04/14 05:17:45;;;;;;;5.20;1.80;;;;;;;17.59;100.00;97884.59;5399792;26;20007;-80
2024/04/14 05:20:13;;;;;;;4.07;1.90;;;;;;;17.65;100.00;97888.66;5407451;26;20057;-79
2024/04/14 05:22:39;;;;;;;3.65;1.70;;;;;;;17.65;100.00;97889.47;5399192;26;20522;-82
2024/04/14 05:25:07;;;;;;;3.63;1.70;;;;;;;17.83;100.00;97895.34;5402503;26;20348;-81
2024/04/14 05:27:34;;;;;;;2.83;1.90;;;;;;;17.85;100.00;97896.59;5392280;26;19995;-81
2024/04/14 05:30:01;;;;;;;2.88;1.83;;;;;;;17.82;100.00;97897.28;5388960;26;20094;-83
2024/04/14 05:32:27;;;;;;;5.28;2.00;;;;;;;17.81;100.00;97900.38;5365370;26;20501;-81
2024/04/14 05:34:55;;;;;;;7.93;1.83;;;;;;;17.92;100.00;97893.22;5385959;26;20437;-82
2024/04/14 05:37:22;;;;;;;3.08;1.98;;;;;;;17.82;100.00;97894.56;5401547;26;20000;-83
2024/04/14 05:39:48;;;;;;;6.05;2.22;;;;;;;17.90;100.00;97898.25;5394995;26;20014;-82
2024/04/14 05:42:15;;;;;;;5.75;2.28;;;;;;;17.92;100.00;97910.44;5400463;26;20023;-80
2024/04/14 05:44:49;;;;;;;3.38;1.90;;;;;;;18.07;100.00;97902.56;5386934;26;20069;-82
2024/04/14 05:47:16;;;;;;;6.38;1.85;;;;;;;17.99;100.00;97907.06;5400021;26;20015;-80
2024/04/14 05:49:43;;;;;;;3.40;1.88;;;;;;;18.01;100.00;97908.28;5401289;26;19996;-81
2024/04/14 05:52:10;;;;;;;7.03;2.30;;;;;;;18.02;100.00;97915.38;5386454;26;20000;-81
2024/04/14 05:54:40;;;;;;;4.18;2.08;;;;;;;18.15;100.00;97916.06;5398766;26;19999;-81
2024/04/14 05:57:07;;;;;;;9.07;2.70;;;;;;;18.12;100.00;97921.47;5392943;26;20051;-81
2024/04/14 05:59:34;;;;;;;4.35;2.00;;;;;;;18.03;100.00;97918.91;5400332;26;20011;-80
2024/04/14 06:02:02;;;;;;;4.35;2.03;;;;;;;17.96;100.00;97911.31;5386667;26;20390;-81
2024/04/14 06:04:29;;;;;;;5.95;2.05;;;;;;;18.01;100.00;97918.47;5399580;26;19999;-81
2024/04/14 06:06:57;;;;;;;4.05;2.10;;;;;;;18.17;100.00;97913.75;5378747;26;20239;-82
2024/04/14 06:09:24;;;;;;;5.93;1.73;;;;;;;18.04;100.00;97915.81;5407769;26;20055;-81
2024/04/14 06:11:51;;;;;;;4.10;2.00;;;;;;;18.11;100.00;97898.75;5404215;26;20485;-81
2024/04/14 06:14:19;;;;;;;7.10;2.10;;;;;;;18.17;100.00;97916.47;5397250;26;20007;-80
2024/04/14 06:16:46;;;;;;;5.90;2.15;;;;;;;18.19;100.00;97916.16;5391684;26;20332;-81
2024/04/14 06:19:13;;;;;;;8.20;2.03;;;;;;;18.24;100.00;97919.41;5399021;26;20035;-81
2024/04/14 06:21:40;;;;;;;4.93;2.08;;;;;;;18.30;100.00;97925.41;5401359;26;19999;-81
2024/04/14 06:24:07;;;;;;;5.32;1.88;;;;;;;18.20;100.00;97926.72;5391891;26;20015;-80
2024/04/14 06:26:34;;;;;;;8.43;2.15;;;;;;;18.18;100.00;97915.34;5393365;26;20403;-81
2024/04/14 06:29:01;;;;;;;3.67;2.03;;;;;;;18.21;100.00;97924.78;5432621;26;20503;-81
2024/04/14 06:31:29;;;;;;;9.05;2.28;;;;;;;18.32;100.00;97936.81;5392956;26;20003;-82
2024/04/14 06:33:55;;;;;;;5.25;2.15;;;;;;;18.31;100.00;97926.97;5390960;26;19996;-80
2024/04/14 06:36:23;;;;;;;3.22;1.80;;;;;;;18.34;100.00;97932.53;5364364;26;20019;-80
2024/04/14 06:38:53;;;;;;;5.60;2.20;;;;;;;18.30;100.00;97928.16;5378121;26;20345;-79
2024/04/14 06:41:20;;;;;;;5.05;1.98;;;;;;;18.51;100.00;97937.66;5386859;26;20024;-81
2024/04/14 06:43:50;;;;;;;5.18;2.03;;;;;;;18.56;100.00;97948.31;5394178;26;20003;-80
2024/04/14 06:46:17;;;;;;;5.38;2.00;;;;;;;18.46;100.00;97962.56;5404150;26;20299;-80
2024/04/14 06:48:45;;;;;;;3.60;1.95;;;;;;;18.43;100.00;97955.06;5390512;26;20000;-80
2024/04/14 06:51:12;;;;;;;5.80;2.17;;;;;;;18.36;100.00;97954.91;5388185;26;20015;-79
2024/04/14 06:53:39;;;;;;;8.75;2.20;;;;;;;18.48;100.00;97957.56;5403565;26;20340;-80
2024/04/14 06:56:06;;;;;;;5.35;2.30;;;;;;;18.67;100.00;97949.34;5373653;26;20010;-80
2024/04/14 06:58:35;;;;;;;3.65;1.80;;;;;;;18.37;100.00;97934.59;5384141;26;20004;-81
2024/04/14 07:01:02;;;;;;;5.13;2.10;;;;;;;18.65;100.00;97948.13;5390679;26;20043;-80
2024/04/14 07:03:29;;;;;;;6.07;2.10;;;;;;;18.67;100.00;97954.84;5389884;26;20003;-79
2024/04/14 07:05:56;;;;;;;2.88;1.83;;;;;;;18.72;100.00;97941.97;5396138;26;20000;-81
2024/04/14 07:08:23;;;;;;;3.03;1.88;;;;;;;18.70;100.00;97955.28;5381905;26;20015;-81
2024/04/14 07:10:50;;;;;;;5.75;2.10;;;;;;;18.80;100.00;97951.97;5389035;26;20119;-78
2024/04/14 07:13:17;;;;;;;4.93;2.30;;;;;;;18.79;100.00;97961.34;5387158;26;20016;-80
2024/04/14 07:15:44;;;;;;;3.47;1.92;;;;;;;18.83;100.00;97949.28;5392630;26;20074;-81
2024/04/14 07:18:11;;;;;;;5.88;2.30;;;;;;;18.95;100.00;97959.31;5391280;26;20104;-80
2024/04/14 07:20:38;;;;;;;8.23;2.50;;;;;;;19.09;100.00;97957.66;5381129;26;20003;-80
2024/04/14 07:23:05;;;;;;;7.65;2.28;;;;;;;19.07;100.00;97953.69;5392677;26;21257;-79
2024/04/14 07:25:32;;;;;;;4.65;2.13;;;;;;;19.27;100.00;97960.75;5358637;26;20023;-80
2024/04/14 07:27:59;;;;;;;4.10;2.17;;;;;;;19.03;100.00;97958.31;5397910;26;20011;-80
2024/04/14 07:30:26;;;;;;;5.03;2.17;;;;;;;19.09;100.00;97946.69;5384792;26;20016;-82
2024/04/14 07:32:54;;;;;;;4.70;2.15;;;;;;;19.19;100.00;97959.03;5405035;26;20015;-83
2024/04/14 07:35:21;;;;;;;4.50;2.38;;;;;;;19.18;100.00;97958.22;5371215;26;20023;-82
2024/04/14 07:37:48;;;;;;;5.63;2.28;;;;;;;19.43;100.00;97961.47;5392786;26;20015;-83
2024/04/14 07:40:15;;;;;;;5.68;2.03;;;;;;;19.65;100.00;97957.16;5397926;26;20020;-80
2024/04/14 07:42:42;;;;;;;6.20;2.05;;;;;;;19.37;100.00;97959.34;5397487;26;20019;-82
2024/04/14 07:45:10;;;;;;;6.13;2.30;;;;;;;19.33;100.00;97959.28;5394486;26;20014;-82
2024/04/14 07:47:37;;;;;;;4.57;2.40;;;;;;;19.59;100.00;97953.13;5404545;26;20039;-81
2024/04/14 07:50:07;;;;;;;6.10;2.13;;;;;;;19.41;100.00;97949.28;5405406;26;19996;-84
2024/04/14 07:52:34;;;;;;;4.50;2.20;;;;;;;19.49;100.00;97960.00;5398658;26;20029;-83
2024/04/14 07:55:01;;;;;;;4.80;2.03;;;;;;;19.50;100.00;97964.34;5392788;26;20249;-82
2024/04/14 07:57:29;;;;;;;8.98;2.53;;;;;;;19.82;100.00;97965.69;5403885;26;20004;-82
2024/04/14 07:59:56;;;;;;;7.10;2.42;;;;;;;19.42;100.00;97967.31;5403180;26;20014;-81
2024/04/14 08:02:23;;;;;;;6.22;2.28;;;;;;;19.73;100.00;97976.13;5397447;26;20018;-81
2024/04/14 08:04:51;;;;;;;4.22;2.50;;;;;;;19.59;100.00;97967.63;5411537;26;20044;-82
2024/04/14 08:07:18;;;;;;;4.97;2.25;;;;;;;19.61;100.00;97962.59;5394100;26;20040;-84
2024/04/14 08:09:45;;;;;;;4.97;2.40;;;;;;;19.55;100.00;97980.53;5401532;26;20000;-82
2024/04/14 08:12:12;;;;;;;5.18;2.40;;;;;;;19.27;100.00;97978.03;5394496;26;20395;-80
2024/04/14 08:14:39;;;;;;;6.28;2.55;;;;;;;19.41;100.00;97983.00;5366096;26;20000;-81
2024/04/14 08:17:06;;;;;;;4.65;2.25;;;;;;;19.42;100.00;97981.06;5396205;26;20018;-81
2024/04/14 08:19:34;;;;;;;4.70;2.00;;;;;;;19.47;100.00;97978.00;5394307;26;20453;-81
2024/04/14 08:22:01;;;;;;;3.65;2.30;;;;;;;19.50;100.00;97975.34;5401175;26;20006;-81
2024/04/14 08:24:28;;;;;;;5.05;2.42;;;;;;;19.70;100.00;97987.84;5404084;26;20488;-80
2024/04/14 08:26:55;;;;;;;4.55;2.38;;;;;;;19.51;100.00;97970.63;5400392;26;20123;-82
2024/04/14 08:29:25;;;;;;;6.10;2.30;;;;;;;19.84;98.72;97993.63;5394764;26;20020;-81
2024/04/14 08:31:55;;;;;;;5.15;2.28;;;;;;;19.51;99.75;97987.88;5404348;26;20007;-80
2024/04/14 08:34:23;;;;;;;4.60;2.47;;;;;;;19.61;100.00;97992.00;5411064;26;20008;-80
2024/04/14 08:36:50;;;;;;;5.28;2.25;;;;;;;19.59;100.00;97995.09;5412192;26;20405;-83
2024/04/14 08:39:21;;;;;;;5.00;3.13;;;;;;;19.28;100.00;97995.25;5379800;26;20007;-81
2024/04/14 08:41:49;;;;;;;7.80;2.78;;;;;;;19.64;100.00;98005.78;5409759;26;20004;-80
2024/04/14 08:44:17;;;;;;;6.05;3.20;;;;;;;19.24;100.00;97995.22;5364831;26;20008;-83
2024/04/14 08:46:46;;;;;;;7.65;2.92;;;;;;;19.93;100.00;98012.59;5375833;26;20004;-81
2024/04/14 08:49:16;;;;;;;6.28;3.50;;;;;;;19.82;100.00;97971.19;5395756;26;20038;-82
2024/04/14 08:51:53;;;;;;;6.32;3.42;;;;;;;20.07;100.00;98015.59;5403195;26;20017;-83
2024/04/14 08:54:21;;;;;;;5.43;3.13;;;;;;;19.93;100.00;97998.84;5404757;26;20036;-82
2024/04/14 08:56:54;;;;;;;8.35;3.40;;;;;;;19.61;100.00;97992.81;5392844;26;20004;-81
2024/04/14 08:59:22;;;;;;;7.40;3.15;;;;;;;20.19;100.00;98006.34;5422957;26;20019;-80
2024/04/14 09:01:54;;;;;;;7.95;2.97;;;;;;;19.90;98.97;98019.59;5397316;26;20003;-81
2024/04/14 09:04:22;;;;;;;6.10;2.90;;;;;;;19.80;99.13;98002.94;5395446;26;20022;-81
2024/04/14 09:06:50;;;;;;;7.55;3.28;;;;;;;19.84;99.88;98020.28;5404205;26;20004;-82
2024/04/14 09:09:18;;;;;;;6.78;2.95;;;;;;;20.39;97.73;98018.84;5399304;26;20057;-81
2024/04/14 09:11:52;;;;;;;7.45;3.13;;;;;;;20.33;91.69;97999.16;5404701;26;20401;-84
2024/04/14 09:14:19;;;;;;;4.78;2.65;;;;;;;20.40;87.93;98015.75;5390097;26;20011;-82
2024/04/14 09:16:46;;;;;;;9.25;3.00;;;;;;;20.59;91.68;98001.13;5410585;26;20003;-84
2024/04/14 09:19:14;;;;;;;5.32;2.80;;;;;;;20.24;87.01;98014.31;5408294;26;20000;-83
2024/04/14 09:21:40;;;;;;;11.55;3.50;;;;;;;20.36;83.04;98028.66;5399542;26;20284;-83
2024/04/14 09:24:07;;;;;;;5.50;2.90;;;;;;;20.38;80.31;98020.84;5392218;26;20005;-80
2024/04/14 09:26:35;;;;;;;6.85;2.80;;;;;;;20.56;78.58;98021.09;5403907;26;20092;-80
2024/04/14 09:29:04;;;;;;;5.88;2.60;;;;;;;20.60;73.41;98027.44;5410108;26;20007;-81
2024/04/14 09:31:35;;;;;;;8.05;3.15;;;;;;;20.23;74.68;98024.53;5405838;26;20003;-79
2024/04/14 09:34:06;;;;;;;4.32;2.30;;;;;;;20.46;78.38;98021.75;5400807;26;20003;-80
2024/04/14 09:36:36;;;;;;;5.82;2.95;;;;;;;20.07;76.23;98026.59;5410239;26;20035;-79
2024/04/14 09:39:06;;;;;;;4.57;2.78;;;;;;;20.13;74.42;98024.31;5403465;26;20459;-80
2024/04/14 09:41:35;;;;;;;7.78;2.97;;;;;;;19.94;74.92;98022.44;5411194;26;20026;-80
2024/04/14 09:44:04;;;;;;;6.22;2.85;;;;;;;20.21;74.53;98029.56;5386464;26;20341;-81
2024/04/14 09:46:32;;;;;;;8.95;3.05;;;;;;;20.37;75.57;98026.69;5402906;26;20791;-81
2024/04/14 09:49:00;;;;;;;5.80;3.03;;;;;;;20.19;73.56;98015.38;5406165;26;20488;-82
2024/04/14 09:51:29;;;;;;;6.88;2.80;;;;;;;19.87;76.77;98025.84;5405663;26;20003;-81
2024/04/14 09:53:58;;;;;;;5.55;3.00;;;;;;;19.75;79.01;98023.28;5396911;26;20026;-81
2024/04/14 09:56:27;;;;;;;6.28;2.70;;;;;;;19.72;80.38;98017.69;5410366;26;20004;-80
2024/04/14 09:58:54;;;;;;;6.30;3.10;;;;;;;20.17;76.30;98030.66;5388228;26;20015;-81
2024/04/14 10:01:30;;;;;;;5.43;2.97;;;;;;;20.29;74.60;98028.53;5411498;26;20011;-79
2024/04/14 10:04:01;;;;;;;8.25;3.45;;;;;;;20.57;72.76;98025.41;5394836;26;20015;-79
2024/04/14 10:06:30;;;;;;;6.85;3.13;;;;;;;20.90;71.42;98036.53;5396044;26;20358;-80
2024/04/14 10:08:57;;;;;;;6.65;2.90;;;;;;;20.54;67.93;98023.44;5400513;26;20453;-79
2024/04/14 10:11:24;;;;;;;6.82;2.85;;;;;;;20.84;67.09;98018.75;5390564;26;20602;-81
2024/04/14 10:13:54;;;;;;;6.47;2.83;;;;;;;20.84;68.62;98035.28;5362607;26;20031;-78
2024/04/14 10:16:22;;;;;;;5.25;2.72;;;;;;;21.33;68.82;98024.13;5398557;26;20019;-80
2024/04/14 10:18:50;;;;;;;4.80;2.75;;;;;;;21.50;66.87;98017.22;5406779;26;20223;-81
2024/04/14 10:21:21;;;;;;;4.18;2.47;;;;;;;21.69;65.92;98017.03;5395513;26;20008;-81
2024/04/14 10:23:57;;;;;;;5.82;2.67;;;;;;;21.80;66.09;97984.88;5394672;26;20007;-80
2024/04/14 10:26:31;;;;;;;4.70;2.35;;;;;;;22.74;62.29;98013.63;5400714;26;20795;-80
2024/04/14 10:29:06;;;;;;;5.85;2.33;;;;;;;22.54;60.51;97995.72;5388452;26;19999;-80
2024/04/14 10:31:34;;;;;;;4.72;2.47;;;;;;;22.03;59.74;98020.56;5407820;26;20534;-82
2024/04/14 10:34:21;;;;;;;6.50;3.08;;;;;;;21.87;61.20;98004.25;5390533;26;20008;-79
2024/04/14 10:36:59;;;;;;;5.80;2.60;;;;;;;21.83;62.46;98014.44;5357637;26;20008;-79
2024/04/14 10:39:27;;;;;;;6.25;2.78;;;;;;;22.11;61.52;98000.94;5369248;26;20028;-80
2024/04/14 10:41:54;;;;;;;8.93;2.63;;;;;;;22.22;60.59;98009.31;5372057;26;20008;-81
2024/04/14 10:44:21;;;;;;;10.77;3.15;;;;;;;22.66;60.64;97992.69;5379535;26;20128;-81
2024/04/14 10:46:48;;;;;;;5.97;2.88;;;;;;;21.57;60.75;98009.06;5354224;26;20020;-81
2024/04/14 10:49:17;;;;;;;5.72;2.78;;;;;;;21.06;64.83;98014.34;5346506;26;20052;-78
2024/04/14 10:51:44;;;;;;;4.72;2.58;;;;;;;21.05;66.58;98008.03;5373131;26;20024;-80
2024/04/14 10:54:12;;;;;;;6.70;2.20;;;;;;;22.25;64.16;98006.56;5365268;26;20012;-79
2024/04/14 10:56:39;;;;;;;4.72;2.30;;;;;;;22.70;58.06;97999.00;5360977;26;20023;-82
2024/04/14 10:59:06;;;;;;;5.90;2.20;;;;;;;22.88;58.26;98003.47;5362020;26;20470;-80
2024/04/14 11:01:34;;;;;;;4.38;2.38;;;;;;;22.34;58.20;98004.28;5370591;26;20484;-79
2024/04/14 11:04:04;;;;;;;6.22;2.20;;;;;;;22.07;58.87;98007.56;5381137;26;20084;-82
2024/04/14 11:06:34;;;;;;;6.88;2.28;;;;;;;22.04;60.95;98006.38;5399828;26;20018;-79
2024/04/14 11:09:02;;;;;;;5.38;1.90;;;;;;;22.60;60.18;97997.75;5393954;26;20008;-80
2024/04/14 11:11:29;;;;;;;5.70;1.95;;;;;;;22.83;58.17;98005.78;5404964;26;20084;-79
2024/04/14 11:13:57;;;;;;;3.97;2.08;;;;;;;22.78;58.85;97990.41;5394000;26;20022;-81
2024/04/14 11:16:27;;;;;;;4.65;2.10;;;;;;;22.73;57.38;97988.00;5406304;26;20409;-79
2024/04/14 11:18:56;;;;;;;7.90;2.33;;;;;;;23.36;57.56;97992.19;5392334;26;20385;-82
2024/04/14 11:21:26;;;;;;;4.55;1.63;;;;;;;22.96;55.31;97993.25;5423290;26;20063;-82
2024/04/14 11:23:54;;;;;;;5.57;2.10;;;;;;;23.17;56.60;97978.72;5400426;26;20054;-80
2024/04/14 11:26:21;;;;;;;6.30;1.88;;;;;;;23.40;54.51;97966.22;5400950;26;20020;-81
2024/04/14 11:28:49;;;;;;;6.03;1.95;;;;;;;22.90;55.27;97986.50;5393838;26;20016;-81
2024/04/14 11:31:16;;;;;;;3.50;2.00;;;;;;;22.92;55.64;97986.91;5396931;26;20008;-82